Time;durP1;ratioP1;P1;durP2;ratioP2;P2;SDS_P1;SDS_P2;PMS_P1;PMS_P2;Temp;Humidity;BMP_temperature;BMP_pressure;BME280_temperature;BME280_humidity;BME280_pressure;Samples;Min_cycle;Max_cycle;Signal;HPM_P1;HPM_P2
2021/01/25 00:00:06;;;;;;;12.82;3.70;;;1.40;81.10;;;;;;4996490;28;20037;-77
2021/01/25 00:02:31;;;;;;;8.30;3.80;;;1.40;80.60;;;;;;5010790;28;20498;-77
2021/01/25 00:04:57;;;;;;;13.65;3.88;;;1.40;79.40;;;;;;4999315;28;20049;-77
2021/01/25 00:07:22;;;;;;;11.55;4.43;;;1.50;79.20;;;;;;5007414;28;20384;-78
2021/01/25 00:09:48;;;;;;;8.85;3.70;;;1.50;79.70;;;;;;5009186;28;20580;-77
2021/01/25 00:12:14;;;;;;;6.43;3.05;;;1.50;79.30;;;;;;5011452;28;20336;-77
2021/01/25 00:14:39;;;;;;;7.88;3.22;;;1.50;79.20;;;;;;4956011;28;20038;-76
2021/01/25 00:17:05;;;;;;;7.65;3.47;;;1.50;78.80;;;;;;4983675;28;20037;-78
2021/01/25 00:19:31;;;;;;;9.95;4.03;;;1.50;78.80;;;;;;4931746;28;20541;-78
2021/01/25 00:21:57;;;;;;;7.97;3.75;;;1.50;77.90;;;;;;4953881;28;20202;-78
2021/01/25 00:24:22;;;;;;;8.45;3.13;;;1.50;77.80;;;;;;4974336;28;20041;-78
2021/01/25 00:26:48;;;;;;;9.45;3.90;;;1.50;77.60;;;;;;4949128;28;20042;-77
2021/01/25 00:29:13;;;;;;;5.82;3.08;;;1.40;77.00;;;;;;4924622;28;20047;-78
2021/01/25 00:31:39;;;;;;;5.88;3.25;;;1.40;76.30;;;;;;4951987;28;20494;-77
2021/01/25 00:34:04;;;;;;;7.30;2.88;;;1.40;76.60;;;;;;4995265;28;20060;-77
2021/01/25 00:36:30;;;;;;;8.65;3.45;;;1.30;77.20;;;;;;4965390;28;20129;-78
2021/01/25 00:38:55;;;;;;;7.88;3.50;;;1.30;77.50;;;;;;4956991;28;20041;-78
2021/01/25 00:41:21;;;;;;;6.65;3.50;;;1.30;78.20;;;;;;5010547;28;20041;-77
2021/01/25 00:43:46;;;;;;;8.07;2.88;;;1.30;78.20;;;;;;5011779;28;20026;-78
2021/01/25 00:46:12;;;;;;;7.15;3.63;;;1.30;76.40;;;;;;5005091;28;20034;-77
2021/01/25 00:48:38;;;;;;;7.43;3.00;;;1.30;75.80;;;;;;4999855;28;20042;-78
2021/01/25 00:51:04;;;;;;;6.03;2.90;;;1.30;76.20;;;;;;4978678;28;20033;-78
2021/01/25 00:53:29;;;;;;;8.57;3.05;;;1.30;76.10;;;;;;4933996;28;20143;-78
2021/01/25 00:55:55;;;;;;;6.30;2.72;;;1.30;75.80;;;;;;4962509;28;20490;-78
2021/01/25 00:58:20;;;;;;;7.00;3.03;;;1.40;76.60;;;;;;4981888;28;20034;-78
2021/01/25 01:00:46;;;;;;;7.85;2.83;;;1.40;76.50;;;;;;5010297;28;20037;-78
2021/01/25 01:03:11;;;;;;;6.38;2.88;;;1.40;75.90;;;;;;4997113;28;20039;-79
2021/01/25 01:05:37;;;;;;;9.18;2.78;;;1.40;75.80;;;;;;5026886;28;20045;-78
2021/01/25 01:08:03;;;;;;;7.38;3.33;;;1.40;76.10;;;;;;5029116;28;20061;-78
2021/01/25 01:10:29;;;;;;;11.48;2.63;;;1.50;75.90;;;;;;4996205;28;20107;-78
2021/01/25 01:12:54;;;;;;;6.70;2.70;;;1.50;76.10;;;;;;5025219;28;20033;-78
2021/01/25 01:15:20;;;;;;;8.18;3.40;;;1.50;76.00;;;;;;4993916;28;20045;-78
2021/01/25 01:17:45;;;;;;;7.38;2.53;;;1.50;75.60;;;;;;5027486;28;20030;-78
2021/01/25 01:20:12;;;;;;;7.00;2.80;;;1.50;74.90;;;;;;5026137;28;20033;-78
2021/01/25 01:22:38;;;;;;;7.38;3.17;;;1.50;74.80;;;;;;4993084;28;20171;-78
2021/01/25 01:25:08;;;;;;;6.15;2.88;;;1.50;74.30;;;;;;4949932;28;20499;-78
2021/01/25 01:27:34;;;;;;;4.70;2.70;;;1.60;74.50;;;;;;4960825;28;20034;-78
2021/01/25 01:29:59;;;;;;;5.97;2.85;;;1.60;74.70;;;;;;4951576;28;20593;-78
2021/01/25 01:32:25;;;;;;;6.68;3.05;;;1.60;76.70;;;;;;4973894;28;20065;-78
2021/01/25 01:34:51;;;;;;;8.38;2.47;;;1.60;75.20;;;;;;4982372;28;20600;-78
2021/01/25 01:37:16;;;;;;;7.15;3.08;;;1.50;75.30;;;;;;4957191;28;20607;-77
2021/01/25 01:39:42;;;;;;;11.45;2.92;;;1.50;76.50;;;;;;4970084;28;20520;-77
2021/01/25 01:42:15;;;;;;;8.07;2.92;;;1.40;76.70;;;;;;4950638;28;20041;-77
2021/01/25 01:44:40;;;;;;;7.13;3.00;;;1.30;77.20;;;;;;4971060;28;20574;-77
2021/01/25 01:47:06;;;;;;;5.85;2.50;;;1.20;77.10;;;;;;4969014;28;20258;-77
2021/01/25 01:49:33;;;;;;;7.15;2.35;;;1.20;77.10;;;;;;4959243;28;20042;-77
2021/01/25 01:51:59;;;;;;;9.60;3.05;;;1.20;77.70;;;;;;4946163;28;20062;-77
2021/01/25 01:54:25;;;;;;;11.52;3.25;;;1.20;78.50;;;;;;4974000;28;20169;-77
2021/01/25 01:56:50;;;;;;;6.80;3.20;;;1.10;78.40;;;;;;4982845;28;20041;-78
2021/01/25 01:59:16;;;;;;;5.32;2.80;;;1.10;78.80;;;;;;4963761;28;20136;-78
2021/01/25 02:01:41;;;;;;;12.98;3.25;;;1.10;79.60;;;;;;4984381;28;20037;-77
2021/01/25 02:04:10;;;;;;;5.30;2.50;;;1.10;79.40;;;;;;4959784;28;20138;-78
2021/01/25 02:06:36;;;;;;;8.20;3.33;;;1.10;80.40;;;;;;4939637;28;20522;-77
2021/01/25 02:09:04;;;;;;;5.22;2.55;;;1.10;80.50;;;;;;4981384;28;20042;-77
2021/01/25 02:11:33;;;;;;;6.53;3.13;;;1.10;80.90;;;;;;4970418;28;20093;-79
2021/01/25 02:14:01;;;;;;;10.90;3.88;;;1.10;81.40;;;;;;4982609;28;20045;-79
2021/01/25 02:16:26;;;;;;;7.90;2.88;;;1.10;81.20;;;;;;4947252;28;20045;-77
2021/01/25 02:18:52;;;;;;;6.97;2.75;;;1.10;81.40;;;;;;4988716;28;20087;-79
2021/01/25 02:21:20;;;;;;;9.80;3.28;;;1.10;81.60;;;;;;4956867;28;20073;-77
2021/01/25 02:23:52;;;;;;;8.55;2.72;;;1.10;81.30;;;;;;4949427;28;20041;-77
2021/01/25 02:26:31;;;;;;;9.43;3.90;;;1.10;81.20;;;;;;4943043;28;20050;-77
2021/01/25 02:28:57;;;;;;;6.70;3.50;;;1.10;82.20;;;;;;4992951;28;20030;-78
2021/01/25 02:31:26;;;;;;;6.43;2.97;;;1.10;81.80;;;;;;4959502;28;20037;-77
2021/01/25 02:33:55;;;;;;;11.52;3.80;;;1.20;82.00;;;;;;4957290;28;20104;-78
2021/01/25 02:36:21;;;;;;;9.57;3.25;;;1.20;82.30;;;;;;4968079;28;20398;-77
2021/01/25 02:38:50;;;;;;;5.97;3.08;;;1.20;83.80;;;;;;4959811;28;20050;-77
2021/01/25 02:41:20;;;;;;;9.98;4.43;;;1.20;83.90;;;;;;4944754;28;20660;-78
2021/01/25 02:43:45;;;;;;;10.82;3.20;;;1.20;83.10;;;;;;4951543;28;20038;-78
2021/01/25 02:46:12;;;;;;;7.97;3.15;;;1.30;83.40;;;;;;4947340;28;20144;-77
2021/01/25 02:48:38;;;;;;;9.32;3.25;;;1.30;82.80;;;;;;4991529;28;20032;-77
2021/01/25 02:51:04;;;;;;;9.80;4.30;;;1.30;82.50;;;;;;4951190;28;20034;-77
2021/01/25 02:53:30;;;;;;;10.23;3.38;;;1.30;83.30;;;;;;4994665;28;20073;-77
2021/01/25 02:55:56;;;;;;;7.53;3.45;;;1.30;83.40;;;;;;4991317;28;20640;-78
2021/01/25 02:58:23;;;;;;;8.30;3.17;;;1.30;83.60;;;;;;4961236;28;20046;-78
2021/01/25 03:00:49;;;;;;;8.20;3.88;;;1.40;83.80;;;;;;4975371;28;20114;-78
2021/01/25 03:03:19;;;;;;;11.82;3.97;;;1.40;82.60;;;;;;5000407;28;20030;-78
2021/01/25 03:05:45;;;;;;;8.52;3.90;;;1.40;83.70;;;;;;4969725;28;20056;-78
2021/01/25 03:08:11;;;;;;;6.57;3.33;;;1.40;83.90;;;;;;4987006;28;20040;-77
2021/01/25 03:10:37;;;;;;;15.20;3.30;;;1.40;83.20;;;;;;4934306;28;20034;-78
2021/01/25 03:13:06;;;;;;;11.57;4.05;;;1.50;83.60;;;;;;4999309;28;20030;-77
2021/01/25 03:15:34;;;;;;;9.20;3.80;;;1.50;83.80;;;;;;5006481;28;20049;-77
2021/01/25 03:18:00;;;;;;;8.63;3.35;;;1.40;85.80;;;;;;5001131;28;20088;-78
2021/01/25 03:20:26;;;;;;;10.35;4.28;;;1.40;90.20;;;;;;5011382;28;20089;-78
2021/01/25 03:22:51;;;;;;;11.98;4.22;;;1.40;92.60;;;;;;5008117;28;20033;-77
2021/01/25 03:25:17;;;;;;;9.25;4.22;;;1.30;93.10;;;;;;5012515;28;20160;-77
2021/01/25 03:27:42;;;;;;;7.43;4.32;;;1.20;97.60;;;;;;4992291;28;20414;-78
2021/01/25 03:30:12;;;;;;;7.50;4.10;;;1.20;99.90;;;;;;5008709;28;20111;-77
2021/01/25 03:32:38;;;;;;;11.35;5.28;;;0.90;99.90;;;;;;5011351;28;20045;-77
2021/01/25 03:35:05;;;;;;;11.60;4.22;;;0.80;99.90;;;;;;4996760;28;20042;-77
2021/01/25 03:37:31;;;;;;;9.95;4.53;;;0.80;99.90;;;;;;5008358;28;20065;-77
2021/01/25 03:39:58;;;;;;;15.20;4.25;;;0.80;99.90;;;;;;5015241;28;20084;-78
2021/01/25 03:42:24;;;;;;;10.75;4.90;;;0.70;99.90;;;;;;5012788;28;20044;-78
2021/01/25 03:44:50;;;;;;;11.10;4.65;;;0.70;99.90;;;;;;5007498;28;20053;-76
2021/01/25 03:47:15;;;;;;;11.80;5.00;;;0.70;99.90;;;;;;5011769;28;20080;-77
2021/01/25 03:49:41;;;;;;;15.82;5.50;;;0.60;99.90;;;;;;5013496;28;20065;-78
2021/01/25 03:52:06;;;;;;;10.75;5.30;;;0.60;99.90;;;;;;5012003;28;20041;-77
2021/01/25 03:54:32;;;;;;;19.75;6.20;;;0.50;99.90;;;;;;5015598;28;20040;-77
2021/01/25 03:56:57;;;;;;;9.23;4.80;;;0.60;99.90;;;;;;5010000;28;20048;-77
2021/01/25 03:59:23;;;;;;;17.90;5.00;;;0.50;99.90;;;;;;5009424;28;20495;-77
2021/01/25 04:01:50;;;;;;;17.27;5.90;;;0.60;99.90;;;;;;5001186;28;20957;-76
2021/01/25 04:04:15;;;;;;;10.32;4.93;;;0.60;99.90;;;;;;5012926;28;20528;-77
2021/01/25 04:06:41;;;;;;;16.13;5.30;;;0.60;99.90;;;;;;4992911;28;20034;-77
2021/01/25 04:09:06;;;;;;;12.68;5.22;;;0.60;99.90;;;;;;5010660;28;20052;-77
2021/01/25 04:11:33;;;;;;;12.30;5.93;;;0.60;99.90;;;;;;5015232;28;20033;-77
2021/01/25 04:13:59;;;;;;;14.43;5.93;;;0.60;99.90;;;;;;4996150;28;20510;-77
2021/01/25 04:16:24;;;;;;;13.65;5.40;;;0.70;99.90;;;;;;5013786;28;20045;-77
2021/01/25 04:18:50;;;;;;;8.55;4.43;;;0.70;99.90;;;;;;5007216;28;20113;-77
2021/01/25 04:21:15;;;;;;;13.70;5.38;;;0.60;99.90;;;;;;5008377;28;20081;-77
2021/01/25 04:23:41;;;;;;;10.00;5.72;;;0.60;99.90;;;;;;5012770;28;20218;-78
2021/01/25 04:26:06;;;;;;;8.18;4.70;;;0.60;99.90;;;;;;5006381;28;20084;-77
2021/01/25 04:28:32;;;;;;;13.82;5.50;;;0.60;99.90;;;;;;5010588;28;20108;-78
2021/01/25 04:30:58;;;;;;;12.73;5.88;;;0.60;99.90;;;;;;5011445;28;20578;-78
2021/01/25 04:33:23;;;;;;;16.13;6.82;;;0.60;99.90;;;;;;5009586;28;20125;-77
2021/01/25 04:35:49;;;;;;;10.02;5.88;;;0.60;99.90;;;;;;5001045;28;20045;-78
2021/01/25 04:38:14;;;;;;;15.10;5.65;;;0.60;99.90;;;;;;5008500;28;20065;-78
2021/01/25 04:40:40;;;;;;;10.45;6.10;;;0.60;99.90;;;;;;4990503;28;20474;-77
2021/01/25 04:43:07;;;;;;;14.38;6.25;;;0.70;99.90;;;;;;5010308;28;20034;-78
2021/01/25 04:45:32;;;;;;;9.55;6.18;;;0.60;99.90;;;;;;5008669;28;20151;-77
2021/01/25 04:48:00;;;;;;;13.77;6.57;;;0.60;99.90;;;;;;5010939;28;20124;-77
2021/01/25 04:50:26;;;;;;;13.73;5.95;;;0.60;99.90;;;;;;5011059;28;20072;-77
2021/01/25 04:52:52;;;;;;;16.65;6.40;;;0.70;99.90;;;;;;5008077;28;20029;-77
2021/01/25 04:55:18;;;;;;;11.93;6.47;;;0.70;99.90;;;;;;5012230;28;20117;-77
2021/01/25 04:57:45;;;;;;;13.35;6.38;;;0.70;99.90;;;;;;5012926;28;20132;-77
2021/01/25 05:00:12;;;;;;;13.75;7.00;;;0.70;99.90;;;;;;5013428;28;20128;-77
2021/01/25 05:02:41;;;;;;;11.63;6.43;;;0.70;99.90;;;;;;5015841;28;20063;-77
2021/01/25 05:05:08;;;;;;;12.50;6.60;;;0.70;99.90;;;;;;5017448;28;20056;-77
2021/01/25 05:07:34;;;;;;;15.25;6.45;;;0.70;99.90;;;;;;5015710;28;20410;-78
2021/01/25 05:10:00;;;;;;;12.52;6.22;;;0.70;99.90;;;;;;5016976;28;20041;-77
2021/01/25 05:12:39;;;;;;;13.38;6.82;;;0.70;99.90;;;;;;5015521;28;20498;-78
2021/01/25 05:15:05;;;;;;;15.15;6.57;;;0.70;99.90;;;;;;5014816;28;20038;-77
2021/01/25 05:17:31;;;;;;;15.32;6.43;;;0.70;99.90;;;;;;5014726;28;20406;-77
2021/01/25 05:19:57;;;;;;;13.77;7.30;;;0.70;99.90;;;;;;5015965;28;20041;-77
2021/01/25 05:22:25;;;;;;;14.27;6.78;;;0.70;99.90;;;;;;5013426;28;20040;-78
2021/01/25 05:24:55;;;;;;;21.48;8.20;;;0.70;99.90;;;;;;5000007;28;20045;-77
2021/01/25 05:27:25;;;;;;;12.32;7.43;;;0.70;99.90;;;;;;5015920;28;20038;-78
2021/01/25 05:29:51;;;;;;;15.20;8.15;;;0.70;99.90;;;;;;5015736;28;20096;-80
2021/01/25 05:32:19;;;;;;;15.02;7.07;;;0.70;99.90;;;;;;5013855;28;20049;-77
2021/01/25 05:34:46;;;;;;;11.80;6.70;;;0.70;99.90;;;;;;5016193;28;20049;-78
2021/01/25 05:37:16;;;;;;;13.75;6.40;;;0.80;99.90;;;;;;5005502;28;20034;-78
2021/01/25 05:39:47;;;;;;;15.93;6.97;;;0.70;99.90;;;;;;4996076;28;20674;-78
2021/01/25 05:42:14;;;;;;;18.15;8.75;;;0.70;99.90;;;;;;5015475;28;20411;-78
2021/01/25 05:44:40;;;;;;;16.75;7.97;;;0.70;99.90;;;;;;5018200;28;20585;-78
2021/01/25 05:47:10;;;;;;;19.52;7.50;;;0.70;99.90;;;;;;5014528;28;20038;-79
2021/01/25 05:49:37;;;;;;;16.80;7.80;;;0.80;99.90;;;;;;5014563;28;20037;-78
2021/01/25 05:52:04;;;;;;;13.30;7.07;;;0.80;99.90;;;;;;4996500;28;20092;-78
2021/01/25 05:54:30;;;;;;;16.08;7.32;;;0.80;99.90;;;;;;5012485;28;20037;-78
2021/01/25 05:56:55;;;;;;;20.23;8.00;;;0.80;99.90;;;;;;5011698;28;20030;-78
2021/01/25 05:59:21;;;;;;;15.77;8.15;;;0.80;99.90;;;;;;4995330;28;20113;-78
2021/01/25 06:01:48;;;;;;;31.25;8.38;;;0.80;99.90;;;;;;5013491;28;20072;-78
2021/01/25 06:04:21;;;;;;;17.33;9.05;;;0.80;99.90;;;;;;5016027;28;20136;-78
2021/01/25 06:07:11;;;;;;;18.50;8.13;;;0.80;99.90;;;;;;5017101;28;20588;-77
2021/01/25 06:09:54;;;;;;;21.92;8.48;;;0.80;99.90;;;;;;5007387;28;20033;-78
2021/01/25 06:12:39;;;;;;;16.20;8.35;;;0.80;99.90;;;;;;5013927;28;20037;-77
2021/01/25 06:15:16;;;;;;;19.67;7.53;;;0.80;99.90;;;;;;5011484;28;20121;-77
2021/01/25 06:17:45;;;;;;;12.52;7.40;;;0.80;99.90;;;;;;5013202;28;20044;-76
2021/01/25 06:20:10;;;;;;;18.05;7.35;;;0.80;99.90;;;;;;5013955;28;20402;-77
2021/01/25 06:22:37;;;;;;;14.77;8.30;;;0.80;99.90;;;;;;5013030;28;20046;-77
2021/01/25 06:25:04;;;;;;;19.33;8.15;;;0.70;99.90;;;;;;5011459;28;20532;-78
2021/01/25 06:27:30;;;;;;;23.95;7.80;;;0.80;99.90;;;;;;5012346;28;20076;-77
2021/01/25 06:30:00;;;;;;;14.70;7.88;;;0.80;99.90;;;;;;5013848;28;20835;-77
2021/01/25 06:32:35;;;;;;;12.88;6.95;;;0.80;99.90;;;;;;5014484;28;20038;-78
2021/01/25 06:35:04;;;;;;;15.02;7.15;;;0.80;99.90;;;;;;5011056;28;20068;-78
2021/01/25 06:37:34;;;;;;;13.00;5.38;;;0.80;99.90;;;;;;4996278;28;20095;-79
2021/01/25 06:40:05;;;;;;;13.55;6.47;;;0.70;99.90;;;;;;5013763;28;20041;-78
2021/01/25 06:42:32;;;;;;;18.85;6.25;;;0.70;99.90;;;;;;5016219;28;20564;-78
2021/01/25 06:45:00;;;;;;;10.13;4.93;;;0.70;99.90;;;;;;5019265;28;20076;-79
2021/01/25 06:47:26;;;;;;;13.05;5.75;;;0.80;99.90;;;;;;5002202;28;20033;-77
2021/01/25 06:49:52;;;;;;;11.63;5.88;;;0.80;99.90;;;;;;4994838;28;20670;-78
2021/01/25 06:52:18;;;;;;;13.95;5.93;;;0.80;99.90;;;;;;5012198;28;20038;-78
2021/01/25 06:54:44;;;;;;;14.98;6.47;;;0.80;99.90;;;;;;5012780;28;20033;-77
2021/01/25 06:57:21;;;;;;;12.45;5.70;;;0.80;99.90;;;;;;5013543;28;20132;-79
2021/01/25 06:59:49;;;;;;;10.77;6.05;;;0.80;99.90;;;;;;5013455;28;20062;-80
2021/01/25 07:02:19;;;;;;;10.45;5.47;;;0.80;99.90;;;;;;5012422;28;20033;-78
2021/01/25 07:04:50;;;;;;;11.60;5.22;;;0.80;99.90;;;;;;5027332;23;20631;-74
2021/01/25 07:07:30;;;;;;;16.05;6.03;;;0.90;99.90;;;;;;5028175;28;20513;-75
2021/01/25 07:09:57;;;;;;;18.40;5.65;;;0.90;99.90;;;;;;5033927;28;20455;-74
2021/01/25 07:12:24;;;;;;;13.80;5.78;;;0.90;99.90;;;;;;5030104;28;20095;-74
2021/01/25 07:14:50;;;;;;;11.63;4.80;;;0.90;99.90;;;;;;5011223;28;20048;-74
2021/01/25 07:17:16;;;;;;;15.63;5.38;;;0.90;99.90;;;;;;5010404;28;20772;-74
2021/01/25 07:19:43;;;;;;;9.43;5.20;;;0.90;99.90;;;;;;5008264;28;20070;-73
2021/01/25 07:22:09;;;;;;;10.60;5.55;;;0.90;99.90;;;;;;5007305;28;20697;-74
2021/01/25 07:24:37;;;;;;;14.13;5.97;;;0.90;99.90;;;;;;5001578;28;20038;-76
2021/01/25 07:27:03;;;;;;;19.70;5.78;;;0.90;99.90;;;;;;5010762;28;20121;-75
2021/01/25 07:29:29;;;;;;;19.70;6.05;;;0.90;99.90;;;;;;5008242;28;20449;-75
2021/01/25 07:31:56;;;;;;;11.27;5.80;;;1.00;99.90;;;;;;5008835;28;20038;-75
2021/01/25 07:34:23;;;;;;;16.73;6.03;;;0.90;99.90;;;;;;5009662;28;20037;-75
2021/01/25 07:36:49;;;;;;;9.77;5.78;;;1.00;99.90;;;;;;4991801;28;20033;-76
2021/01/25 07:39:17;;;;;;;16.50;6.50;;;1.00;99.90;;;;;;4986464;28;20044;-76
2021/01/25 07:41:44;;;;;;;12.90;5.93;;;1.10;99.90;;;;;;5004411;28;20037;-75
2021/01/25 07:44:12;;;;;;;11.18;5.32;;;1.10;99.90;;;;;;4988778;28;20115;-75
2021/01/25 07:46:38;;;;;;;12.45;5.68;;;1.10;99.90;;;;;;4985995;28;20514;-76
2021/01/25 07:49:04;;;;;;;13.60;5.45;;;1.20;99.90;;;;;;5009145;28;20030;-75
2021/01/25 07:51:36;;;;;;;10.40;6.15;;;1.20;99.90;;;;;;5009790;28;20030;-75
2021/01/25 07:54:03;;;;;;;12.52;5.03;;;1.20;99.90;;;;;;5008373;28;20022;-75
2021/01/25 07:56:29;;;;;;;12.60;6.40;;;1.20;99.90;;;;;;5005517;28;20052;-74
2021/01/25 07:59:17;;;;;;;12.10;6.13;;;1.20;99.90;;;;;;5004324;28;20029;-74
2021/01/25 08:01:55;;;;;;;14.63;6.53;;;1.20;99.90;;;;;;5008812;28;20029;-76
2021/01/25 08:04:27;;;;;;;15.10;6.97;;;1.20;99.90;;;;;;4988793;28;20125;-76
2021/01/25 08:06:53;;;;;;;17.30;6.53;;;1.20;99.90;;;;;;5008449;28;20529;-76
2021/01/25 08:09:21;;;;;;;23.40;6.85;;;1.20;99.90;;;;;;5006996;28;20049;-77
2021/01/25 08:11:47;;;;;;;30.92;7.43;;;1.20;99.90;;;;;;5005140;28;20030;-76
2021/01/25 08:14:28;;;;;;;13.48;6.60;;;1.20;99.90;;;;;;5005532;28;20068;-75
2021/01/25 08:17:03;;;;;;;15.57;5.72;;;1.20;99.90;;;;;;4989624;28;20056;-76
2021/01/25 08:19:37;;;;;;;27.27;7.50;;;1.20;99.90;;;;;;4990409;28;20037;-76
2021/01/25 08:22:10;;;;;;;15.23;6.38;;;1.30;99.90;;;;;;5008102;28;20030;-76
2021/01/25 08:24:36;;;;;;;16.98;6.53;;;1.30;99.90;;;;;;4986716;28;22312;-76
2021/01/25 08:27:18;;;;;;;16.90;6.85;;;1.30;99.90;;;;;;5002978;28;20072;-76
2021/01/25 08:29:47;;;;;;;17.42;7.32;;;1.20;99.90;;;;;;4992105;28;20052;-77
2021/01/25 08:32:28;;;;;;;13.48;5.70;;;1.20;99.90;;;;;;5006424;28;20046;-76
2021/01/25 08:34:58;;;;;;;12.70;6.20;;;1.30;99.90;;;;;;5007949;28;20042;-76
2021/01/25 08:37:31;;;;;;;11.43;5.43;;;1.30;99.90;;;;;;5008678;28;20038;-78
2021/01/25 08:39:56;;;;;;;13.82;6.82;;;1.30;99.90;;;;;;5017591;28;20528;-76
2021/01/25 08:42:31;;;;;;;16.95;6.13;;;1.40;99.90;;;;;;5019725;28;20041;-76
2021/01/25 08:45:07;;;;;;;;;;;1.40;99.90;;;;;;5015889;28;20037;-75
2021/01/25 08:47:34;;;;;;;18.85;6.45;;;1.50;99.90;;;;;;5010656;28;19952;-75
2021/01/25 08:50:01;;;;;;;14.65;6.53;;;1.50;99.90;;;;;;5009090;28;20478;-75
2021/01/25 08:52:39;;;;;;;18.75;6.63;;;1.60;99.90;;;;;;5005017;28;20115;-77
2021/01/25 08:55:05;;;;;;;16.70;7.40;;;1.70;99.90;;;;;;4992107;28;20033;-76
2021/01/25 08:57:36;;;;;;;21.20;7.47;;;1.70;99.90;;;;;;5008961;28;20048;-76
2021/01/25 09:00:09;;;;;;;17.08;7.57;;;1.70;99.90;;;;;;5009961;28;20122;-76
2021/01/25 09:02:35;;;;;;;16.67;7.45;;;1.70;99.90;;;;;;5009371;28;20080;-76
2021/01/25 09:05:00;;;;;;;15.23;7.43;;;1.70;99.90;;;;;;5012478;28;20038;-77
2021/01/25 09:07:26;;;;;;;17.10;6.85;;;1.70;99.90;;;;;;5012722;28;20029;-75
2021/01/25 09:09:52;;;;;;;23.33;7.95;;;1.70;99.90;;;;;;5017091;28;20121;-75
2021/01/25 09:12:19;;;;;;;16.88;7.22;;;1.70;99.90;;;;;;5013330;28;20065;-75
2021/01/25 09:14:45;;;;;;;23.73;7.93;;;1.80;99.90;;;;;;5016078;28;20037;-77
2021/01/25 09:17:12;;;;;;;23.27;7.53;;;1.80;99.90;;;;;;4989153;28;20466;-76
2021/01/25 09:19:38;;;;;;;25.60;7.65;;;1.80;99.90;;;;;;5014989;28;20711;-77
2021/01/25 09:22:09;;;;;;;23.10;7.97;;;1.90;99.90;;;;;;4994300;28;20476;-75
2021/01/25 09:24:35;;;;;;;18.98;8.60;;;1.90;99.90;;;;;;5015046;28;20037;-76
2021/01/25 09:27:00;;;;;;;18.55;8.23;;;2.00;99.90;;;;;;5014979;28;20471;-76
2021/01/25 09:29:27;;;;;;;19.08;7.95;;;2.10;99.90;;;;;;5011900;28;20034;-75
2021/01/25 09:31:52;;;;;;;18.00;7.72;;;2.20;99.90;;;;;;5017481;28;20457;-75
2021/01/25 09:34:18;;;;;;;18.65;6.90;;;2.20;99.90;;;;;;5012965;28;20030;-74
2021/01/25 09:36:43;;;;;;;15.65;7.40;;;2.20;99.90;;;;;;5014582;28;20456;-75
2021/01/25 09:39:10;;;;;;;23.15;7.57;;;2.30;99.90;;;;;;5014286;28;20050;-75
2021/01/25 09:41:36;;;;;;;11.82;7.20;;;2.20;99.90;;;;;;5007907;28;20037;-75
2021/01/25 09:44:03;;;;;;;18.55;7.65;;;2.10;99.90;;;;;;5010950;28;20062;-76
2021/01/25 09:46:29;;;;;;;23.70;7.85;;;2.20;99.90;;;;;;5010496;28;20042;-75
2021/01/25 09:48:54;;;;;;;26.30;8.40;;;2.20;99.90;;;;;;5012443;28;20034;-75
2021/01/25 09:51:20;;;;;;;19.65;7.32;;;2.30;99.90;;;;;;5012275;28;20025;-75
2021/01/25 09:53:46;;;;;;;23.23;8.40;;;2.20;99.90;;;;;;5011342;28;20060;-78
2021/01/25 09:56:11;;;;;;;18.85;7.68;;;2.20;99.90;;;;;;5013161;28;20040;-76
2021/01/25 09:58:37;;;;;;;15.95;8.23;;;2.30;99.90;;;;;;5013503;28;20034;-76
2021/01/25 10:01:04;;;;;;;19.13;8.98;;;2.30;99.90;;;;;;5012047;28;20034;-77
2021/01/25 10:03:30;;;;;;;17.13;7.28;;;2.30;99.90;;;;;;5015632;28;20033;-76
2021/01/25 10:05:55;;;;;;;16.58;7.90;;;2.30;99.90;;;;;;5013187;28;20048;-75
2021/01/25 10:08:21;;;;;;;19.70;7.38;;;2.40;99.90;;;;;;5002974;28;20038;-76
2021/01/25 10:10:47;;;;;;;15.27;7.55;;;2.50;99.90;;;;;;5012030;28;20041;-76
2021/01/25 10:13:13;;;;;;;15.32;7.20;;;2.60;99.90;;;;;;5012257;28;20064;-75
2021/01/25 10:15:38;;;;;;;18.95;7.20;;;2.70;99.90;;;;;;5014266;28;20069;-76
2021/01/25 10:18:04;;;;;;;17.15;7.72;;;2.70;99.90;;;;;;5017620;28;20037;-77
2021/01/25 10:20:30;;;;;;;13.43;7.15;;;2.80;99.90;;;;;;5017985;28;20076;-75
2021/01/25 10:22:56;;;;;;;13.90;6.43;;;2.80;99.90;;;;;;5013389;28;20061;-76
2021/01/25 10:25:22;;;;;;;11.60;6.88;;;2.90;99.90;;;;;;5014122;28;20041;-76
2021/01/25 10:27:48;;;;;;;16.20;6.88;;;2.90;99.90;;;;;;4999284;28;20061;-76
2021/01/25 10:30:17;;;;;;;19.67;7.38;;;3.00;99.90;;;;;;5013702;28;20064;-77
2021/01/25 10:32:42;;;;;;;14.60;5.88;;;3.10;99.90;;;;;;4994778;28;20053;-76
2021/01/25 10:35:09;;;;;;;12.82;6.28;;;3.00;99.90;;;;;;5017533;28;20029;-76
2021/01/25 10:37:35;;;;;;;19.23;6.40;;;3.30;99.90;;;;;;5017274;28;20029;-76
2021/01/25 10:40:01;;;;;;;13.85;6.15;;;3.20;99.90;;;;;;5015680;28;20385;-76
2021/01/25 10:42:28;;;;;;;18.55;6.93;;;3.40;99.90;;;;;;5010434;28;20041;-76
2021/01/25 10:44:53;;;;;;;15.80;5.07;;;3.30;99.90;;;;;;4992615;28;20498;-76
2021/01/25 10:47:19;;;;;;;15.82;5.43;;;3.30;99.90;;;;;;5012639;28;20044;-77
2021/01/25 10:49:48;;;;;;;5.60;3.28;;;3.20;99.90;;;;;;5003372;28;20050;-76
2021/01/25 10:52:15;;;;;;;7.70;3.00;;;2.90;99.90;;;;;;5010751;28;20106;-77
2021/01/25 10:54:41;;;;;;;8.27;3.92;;;2.90;99.90;;;;;;5012167;28;20046;-76
2021/01/25 10:57:07;;;;;;;6.90;3.08;;;2.90;99.90;;;;;;5013532;28;20107;-77
2021/01/25 10:59:33;;;;;;;6.82;3.10;;;2.90;99.90;;;;;;5014734;28;20041;-77
2021/01/25 11:01:59;;;;;;;6.07;3.10;;;3.00;99.90;;;;;;5011293;28;20048;-78
2021/01/25 11:04:25;;;;;;;11.15;3.67;;;3.10;99.90;;;;;;5013308;28;20045;-78
2021/01/25 11:06:51;;;;;;;9.00;3.15;;;3.40;99.90;;;;;;5010229;28;20042;-78
2021/01/25 11:09:17;;;;;;;3.97;2.60;;;3.60;99.90;;;;;;5010880;28;20124;-77
2021/01/25 11:11:42;;;;;;;6.00;2.53;;;3.90;99.90;;;;;;5010751;28;20033;-77
2021/01/25 11:14:08;;;;;;;6.88;2.65;;;3.80;99.90;;;;;;5012379;28;20041;-77
2021/01/25 11:16:34;;;;;;;6.82;2.25;;;4.10;99.90;;;;;;5011676;28;20243;-79
2021/01/25 11:18:59;;;;;;;3.65;2.28;;;4.10;99.90;;;;;;5011669;28;20600;-78
2021/01/25 11:21:25;;;;;;;4.35;2.47;;;3.80;99.90;;;;;;5010295;28;20513;-78
2021/01/25 11:23:51;;;;;;;9.63;2.53;;;3.90;99.90;;;;;;5011518;28;20042;-77
2021/01/25 11:26:20;;;;;;;5.00;2.35;;;3.90;99.90;;;;;;5013516;28;20092;-77
2021/01/25 11:28:47;;;;;;;3.92;2.30;;;4.00;99.90;;;;;;5012001;28;20628;-78
2021/01/25 11:31:13;;;;;;;6.90;2.20;;;4.00;99.90;;;;;;5010318;28;20387;-77
2021/01/25 11:33:39;;;;;;;7.35;2.65;;;4.00;99.90;;;;;;5011605;28;20073;-77
2021/01/25 11:36:06;;;;;;;4.15;2.10;;;4.20;99.90;;;;;;5010362;28;20440;-79
2021/01/25 11:38:31;;;;;;;6.35;3.08;;;4.00;99.90;;;;;;5011357;28;20061;-78
2021/01/25 11:40:57;;;;;;;3.78;2.13;;;4.00;99.90;;;;;;5006535;28;20491;-80
2021/01/25 11:43:23;;;;;;;3.22;1.60;;;4.00;99.90;;;;;;5010281;28;20125;-78
2021/01/25 11:45:50;;;;;;;5.35;2.60;;;3.90;99.90;;;;;;5007440;28;20038;-78
2021/01/25 11:48:17;;;;;;;3.50;2.08;;;4.00;99.90;;;;;;5005231;28;20418;-79
2021/01/25 11:50:47;;;;;;;7.78;1.80;;;4.00;99.90;;;;;;5006015;28;20072;-79
2021/01/25 11:53:14;;;;;;;3.40;2.08;;;4.10;99.90;;;;;;5007826;28;20491;-80
2021/01/25 11:55:41;;;;;;;4.80;1.70;;;4.20;99.90;;;;;;5007060;28;20037;-80
2021/01/25 11:58:07;;;;;;;3.33;1.67;;;4.20;99.90;;;;;;4986463;28;20034;-78
2021/01/25 12:00:33;;;;;;;2.72;1.63;;;4.20;99.90;;;;;;5005523;28;20034;-78
2021/01/25 12:02:58;;;;;;;3.97;1.70;;;4.30;99.90;;;;;;5005156;28;20081;-78
2021/01/25 12:05:24;;;;;;;3.72;1.70;;;4.30;99.90;;;;;;5008686;28;20529;-77
2021/01/25 12:07:49;;;;;;;2.15;0.95;;;4.40;99.90;;;;;;5004841;28;20053;-78
2021/01/25 12:10:15;;;;;;;1.63;0.85;;;4.10;99.90;;;;;;5015723;28;20042;-78
2021/01/25 12:12:40;;;;;;;1.60;0.95;;;4.30;99.90;;;;;;5008831;28;20041;-79
2021/01/25 12:15:08;;;;;;;1.30;0.80;;;4.20;99.90;;;;;;5009187;28;20037;-79
2021/01/25 12:17:33;;;;;;;0.73;0.57;;;4.10;99.90;;;;;;5013240;28;20087;-77
2021/01/25 12:19:59;;;;;;;0.80;0.60;;;4.20;99.90;;;;;;5011826;28;20470;-77
2021/01/25 12:22:24;;;;;;;1.38;0.68;;;4.20;99.90;;;;;;5003592;28;20037;-79
2021/01/25 12:24:50;;;;;;;1.42;0.73;;;4.30;99.90;;;;;;5014612;28;20037;-76
2021/01/25 12:27:16;;;;;;;0.90;0.22;;;4.30;99.90;;;;;;5014075;28;20040;-76
2021/01/25 12:29:41;;;;;;;4.15;0.60;;;4.30;99.90;;;;;;5014596;28;20034;-77
2021/01/25 12:32:07;;;;;;;0.75;0.45;;;4.30;99.90;;;;;;5012692;28;20041;-77
2021/01/25 12:34:35;;;;;;;4.20;0.65;;;4.40;99.90;;;;;;5011747;28;20062;-76
2021/01/25 12:37:01;;;;;;;1.70;0.63;;;4.40;99.90;;;;;;4999035;28;20038;-78
2021/01/25 12:39:27;;;;;;;5.43;0.73;;;4.40;99.90;;;;;;4998171;28;20041;-77
2021/01/25 12:41:52;;;;;;;0.77;0.60;;;4.40;99.90;;;;;;5014036;28;20627;-78
2021/01/25 12:44:18;;;;;;;2.20;0.45;;;4.20;99.90;;;;;;5018509;28;20041;-77
2021/01/25 12:46:44;;;;;;;1.98;0.50;;;4.20;99.90;;;;;;4999843;28;20398;-77
2021/01/25 12:49:11;;;;;;;1.63;0.43;;;4.20;99.90;;;;;;5017413;28;20042;-77